sensor_id;sensor_type;location;lat;lon;timestamp;temperature;humidity
4787;DHT22;62338;48.832;9.422;2023-07-22T00:02:00;12.20;99.90
4787;DHT22;62338;48.832;9.422;2023-07-22T00:04:02;12.20;99.90
4787;DHT22;62338;48.832;9.422;2023-07-22T00:06:09;12.10;99.90
4787;DHT22;62338;48.832;9.422;2023-07-22T00:08:11;12.10;99.90
4787;DHT22;62338;48.832;9.422;2023-07-22T00:10:13;12.10;99.90
4787;DHT22;62338;48.832;9.422;2023-07-22T00:12:15;12.00;99.90
4787;DHT22;62338;48.832;9.422;2023-07-22T00:14:16;12.00;99.90
4787;DHT22;62338;48.832;9.422;2023-07-22T00:16:18;12.00;99.90
4787;DHT22;62338;48.832;9.422;2023-07-22T00:18:20;12.10;99.90
4787;DHT22;62338;48.832;9.422;2023-07-22T00:20:22;12.10;99.90
4787;DHT22;62338;48.832;9.422;2023-07-22T00:22:24;12.10;99.90
4787;DHT22;62338;48.832;9.422;2023-07-22T00:24:28;12.20;99.90
4787;DHT22;62338;48.832;9.422;2023-07-22T00:26:30;12.20;99.90
4787;DHT22;62338;48.832;9.422;2023-07-22T00:28:32;12.20;99.90
4787;DHT22;62338;48.832;9.422;2023-07-22T00:30:34;12.10;99.90
4787;DHT22;62338;48.832;9.422;2023-07-22T00:32:36;12.10;99.90
4787;DHT22;62338;48.832;9.422;2023-07-22T00:34:39;12.10;99.90
4787;DHT22;62338;48.832;9.422;2023-07-22T00:36:40;12.00;99.90
4787;DHT22;62338;48.832;9.422;2023-07-22T00:38:42;12.00;99.90
4787;DHT22;62338;48.832;9.422;2023-07-22T00:40:45;12.00;99.90
4787;DHT22;62338;48.832;9.422;2023-07-22T00:42:46;12.00;99.90
4787;DHT22;62338;48.832;9.422;2023-07-22T00:44:49;12.00;99.90
4787;DHT22;62338;48.832;9.422;2023-07-22T00:46:54;11.90;99.90
4787;DHT22;62338;48.832;9.422;2023-07-22T00:48:58;11.90;99.90
4787;DHT22;62338;48.832;9.422;2023-07-22T00:51:00;12.00;99.90
4787;DHT22;62338;48.832;9.422;2023-07-22T00:53:01;12.00;99.90
4787;DHT22;62338;48.832;9.422;2023-07-22T00:55:04;12.10;99.90
4787;DHT22;62338;48.832;9.422;2023-07-22T00:57:06;12.10;99.90
4787;DHT22;62338;48.832;9.422;2023-07-22T00:59:08;12.10;99.90
4787;DHT22;62338;48.832;9.422;2023-07-22T01:01:10;12.00;99.90
4787;DHT22;62338;48.832;9.422;2023-07-22T01:03:12;12.10;99.90
4787;DHT22;62338;48.832;9.422;2023-07-22T01:05:14;12.10;99.90
4787;DHT22;62338;48.832;9.422;2023-07-22T01:07:17;12.10;99.90
4787;DHT22;62338;48.832;9.422;2023-07-22T01:09:19;12.20;99.90
4787;DHT22;62338;48.832;9.422;2023-07-22T01:11:21;12.20;99.90
4787;DHT22;62338;48.832;9.422;2023-07-22T01:13:23;12.30;99.90
4787;DHT22;62338;48.832;9.422;2023-07-22T01:15:25;12.40;99.90
4787;DHT22;62338;48.832;9.422;2023-07-22T01:17:27;12.50;99.90
4787;DHT22;62338;48.832;9.422;2023-07-22T01:19:31;12.40;99.90
4787;DHT22;62338;48.832;9.422;2023-07-22T01:21:33;12.50;99.90
4787;DHT22;62338;48.832;9.422;2023-07-22T01:23:36;12.50;99.90
4787;DHT22;62338;48.832;9.422;2023-07-22T01:25:38;12.60;99.90
4787;DHT22;62338;48.832;9.422;2023-07-22T01:27:40;12.60;99.90
4787;DHT22;62338;48.832;9.422;2023-07-22T01:29:41;12.60;99.90
4787;DHT22;62338;48.832;9.422;2023-07-22T01:31:49;12.50;99.90
4787;DHT22;62338;48.832;9.422;2023-07-22T01:33:51;12.50;99.90
4787;DHT22;62338;48.832;9.422;2023-07-22T01:35:53;12.50;99.90
4787;DHT22;62338;48.832;9.422;2023-07-22T01:37:55;12.60;99.90
4787;DHT22;62338;48.832;9.422;2023-07-22T01:39:57;12.60;99.90
4787;DHT22;62338;48.832;9.422;2023-07-22T01:41:59;12.60;99.90
4787;DHT22;62338;48.832;9.422;2023-07-22T01:44:00;12.60;99.90
4787;DHT22;62338;48.832;9.422;2023-07-22T01:46:02;12.60;99.90
4787;DHT22;62338;48.832;9.422;2023-07-22T01:48:05;12.50;99.90
4787;DHT22;62338;48.832;9.422;2023-07-22T01:50:07;12.40;99.90
4787;DHT22;62338;48.832;9.422;2023-07-22T01:52:09;12.50;99.90
4787;DHT22;62338;48.832;9.422;2023-07-22T01:54:11;12.60;99.90
4787;DHT22;62338;48.832;9.422;2023-07-22T01:56:14;12.50;99.90
4787;DHT22;62338;48.832;9.422;2023-07-22T01:58:15;12.50;99.90
4787;DHT22;62338;48.832;9.422;2023-07-22T02:00:17;12.40;99.90
4787;DHT22;62338;48.832;9.422;2023-07-22T02:02:20;12.50;99.90
4787;DHT22;62338;48.832;9.422;2023-07-22T02:04:22;12.60;99.90
4787;DHT22;62338;48.832;9.422;2023-07-22T02:06:23;12.60;99.90
4787;DHT22;62338;48.832;9.422;2023-07-22T02:08:26;12.70;99.90
4787;DHT22;62338;48.832;9.422;2023-07-22T02:10:27;12.70;99.90
4787;DHT22;62338;48.832;9.422;2023-07-22T02:12:29;12.80;99.90
4787;DHT22;62338;48.832;9.422;2023-07-22T02:14:31;12.80;99.90
4787;DHT22;62338;48.832;9.422;2023-07-22T02:16:34;12.80;99.90
4787;DHT22;62338;48.832;9.422;2023-07-22T02:18:37;12.70;99.90
4787;DHT22;62338;48.832;9.422;2023-07-22T02:20:42;12.60;99.90
4787;DHT22;62338;48.832;9.422;2023-07-22T02:22:43;12.60;99.90
4787;DHT22;62338;48.832;9.422;2023-07-22T02:24:45;12.50;99.90
4787;DHT22;62338;48.832;9.422;2023-07-22T02:26:47;12.50;99.90
4787;DHT22;62338;48.832;9.422;2023-07-22T02:28:49;12.50;99.90
4787;DHT22;62338;48.832;9.422;2023-07-22T02:30:52;12.50;99.90
4787;DHT22;62338;48.832;9.422;2023-07-22T02:32:54;12.50;99.90
4787;DHT22;62338;48.832;9.422;2023-07-22T02:34:56;12.60;99.90
4787;DHT22;62338;48.832;9.422;2023-07-22T02:36:58;12.50;99.90
4787;DHT22;62338;48.832;9.422;2023-07-22T02:38:59;12.50;99.90
4787;DHT22;62338;48.832;9.422;2023-07-22T02:41:02;12.50;99.90
4787;DHT22;62338;48.832;9.422;2023-07-22T02:43:04;12.40;99.90
4787;DHT22;62338;48.832;9.422;2023-07-22T02:45:08;12.50;99.90
4787;DHT22;62338;48.832;9.422;2023-07-22T02:47:10;12.50;99.90
4787;DHT22;62338;48.832;9.422;2023-07-22T02:49:12;12.40;99.90
4787;DHT22;62338;48.832;9.422;2023-07-22T02:51:14;12.30;99.90
4787;DHT22;62338;48.832;9.422;2023-07-22T02:53:16;12.30;99.90
4787;DHT22;62338;48.832;9.422;2023-07-22T02:55:18;12.20;99.90
4787;DHT22;62338;48.832;9.422;2023-07-22T02:57:20;12.20;99.90
4787;DHT22;62338;48.832;9.422;2023-07-22T02:59:22;12.10;99.90
4787;DHT22;62338;48.832;9.422;2023-07-22T03:01:23;12.10;99.90
4787;DHT22;62338;48.832;9.422;2023-07-22T03:03:27;12.10;99.90
4787;DHT22;62338;48.832;9.422;2023-07-22T03:05:29;12.10;99.90
4787;DHT22;62338;48.832;9.422;2023-07-22T03:07:31;12.10;99.90
4787;DHT22;62338;48.832;9.422;2023-07-22T03:09:33;12.10;99.90
4787;DHT22;62338;48.832;9.422;2023-07-22T03:11:35;12.10;99.90
4787;DHT22;62338;48.832;9.422;2023-07-22T03:13:37;12.20;99.90
4787;DHT22;62338;48.832;9.422;2023-07-22T03:15:38;12.20;99.90
4787;DHT22;62338;48.832;9.422;2023-07-22T03:17:40;12.20;99.90
4787;DHT22;62338;48.832;9.422;2023-07-22T03:19:45;12.20;99.90
4787;DHT22;62338;48.832;9.422;2023-07-22T03:21:50;12.20;99.90
4787;DHT22;62338;48.832;9.422;2023-07-22T03:23:52;12.20;99.90
4787;DHT22;62338;48.832;9.422;2023-07-22T03:25:54;12.20;99.90
4787;DHT22;62338;48.832;9.422;2023-07-22T03:27:56;12.20;99.90
4787;DHT22;62338;48.832;9.422;2023-07-22T03:29:58;12.30;99.90
4787;DHT22;62338;48.832;9.422;2023-07-22T03:31:59;12.40;99.90
4787;DHT22;62338;48.832;9.422;2023-07-22T03:34:01;12.40;99.90
4787;DHT22;62338;48.832;9.422;2023-07-22T03:36:03;12.50;99.90
4787;DHT22;62338;48.832;9.422;2023-07-22T03:38:05;12.40;99.90
4787;DHT22;62338;48.832;9.422;2023-07-22T03:40:07;12.50;99.90
4787;DHT22;62338;48.832;9.422;2023-07-22T03:42:20;12.50;99.90
4787;DHT22;62338;48.832;9.422;2023-07-22T03:44:22;12.40;99.90
4787;DHT22;62338;48.832;9.422;2023-07-22T03:46:25;12.40;99.90
4787;DHT22;62338;48.832;9.422;2023-07-22T03:48:27;12.50;99.90
4787;DHT22;62338;48.832;9.422;2023-07-22T03:50:29;12.50;99.90
4787;DHT22;62338;48.832;9.422;2023-07-22T03:52:31;12.50;99.90
4787;DHT22;62338;48.832;9.422;2023-07-22T03:54:32;12.60;99.90
4787;DHT22;62338;48.832;9.422;2023-07-22T03:56:34;12.60;99.90
4787;DHT22;62338;48.832;9.422;2023-07-22T03:58:36;12.60;99.90
4787;DHT22;62338;48.832;9.422;2023-07-22T04:00:38;12.60;99.90
4787;DHT22;62338;48.832;9.422;2023-07-22T04:02:40;12.60;99.90
4787;DHT22;62338;48.832;9.422;2023-07-22T04:04:42;12.60;99.90
4787;DHT22;62338;48.832;9.422;2023-07-22T04:06:44;12.50;99.90
4787;DHT22;62338;48.832;9.422;2023-07-22T04:08:46;12.50;99.90
4787;DHT22;62338;48.832;9.422;2023-07-22T04:10:55;12.60;99.90
4787;DHT22;62338;48.832;9.422;2023-07-22T04:12:57;12.60;99.90
4787;DHT22;62338;48.832;9.422;2023-07-22T04:14:59;12.60;99.90
4787;DHT22;62338;48.832;9.422;2023-07-22T04:17:01;12.60;99.90
4787;DHT22;62338;48.832;9.422;2023-07-22T04:19:02;12.70;99.90
4787;DHT22;62338;48.832;9.422;2023-07-22T04:21:04;12.80;99.90
4787;DHT22;62338;48.832;9.422;2023-07-22T04:23:06;12.90;99.90
4787;DHT22;62338;48.832;9.422;2023-07-22T04:25:08;12.90;99.90
4787;DHT22;62338;48.832;9.422;2023-07-22T04:27:11;12.90;99.90
4787;DHT22;62338;48.832;9.422;2023-07-22T04:29:12;13.00;99.90
4787;DHT22;62338;48.832;9.422;2023-07-22T04:31:14;13.00;99.90
4787;DHT22;62338;48.832;9.422;2023-07-22T04:33:16;13.00;99.90
4787;DHT22;62338;48.832;9.422;2023-07-22T04:35:18;12.90;99.90
4787;DHT22;62338;48.832;9.422;2023-07-22T04:37:20;12.90;99.90
4787;DHT22;62338;48.832;9.422;2023-07-22T04:39:22;12.90;99.90
4787;DHT22;62338;48.832;9.422;2023-07-22T04:41:24;12.90;99.90
4787;DHT22;62338;48.832;9.422;2023-07-22T04:43:26;12.90;99.90
4787;DHT22;62338;48.832;9.422;2023-07-22T04:45:28;13.00;99.90
4787;DHT22;62338;48.832;9.422;2023-07-22T04:47:30;13.00;99.90
4787;DHT22;62338;48.832;9.422;2023-07-22T04:49:32;13.00;99.90
4787;DHT22;62338;48.832;9.422;2023-07-22T04:51:34;13.00;99.90
4787;DHT22;62338;48.832;9.422;2023-07-22T04:53:36;13.10;99.90
4787;DHT22;62338;48.832;9.422;2023-07-22T04:55:37;13.10;99.90
4787;DHT22;62338;48.832;9.422;2023-07-22T04:57:40;13.10;99.90
4787;DHT22;62338;48.832;9.422;2023-07-22T04:59:42;13.10;99.90
4787;DHT22;62338;48.832;9.422;2023-07-22T05:01:44;13.20;99.90
4787;DHT22;62338;48.832;9.422;2023-07-22T05:03:46;13.20;99.90
4787;DHT22;62338;48.832;9.422;2023-07-22T05:05:48;13.30;99.90
4787;DHT22;62338;48.832;9.422;2023-07-22T05:07:50;13.40;99.90
4787;DHT22;62338;48.832;9.422;2023-07-22T05:09:52;13.40;99.90
4787;DHT22;62338;48.832;9.422;2023-07-22T05:11:54;13.40;99.90
4787;DHT22;62338;48.832;9.422;2023-07-22T05:13:55;13.50;99.90
4787;DHT22;62338;48.832;9.422;2023-07-22T05:15:57;13.60;99.90
4787;DHT22;62338;48.832;9.422;2023-07-22T05:17:59;13.60;99.90
4787;DHT22;62338;48.832;9.422;2023-07-22T05:20:01;13.70;99.90
4787;DHT22;62338;48.832;9.422;2023-07-22T05:22:03;13.80;99.90
4787;DHT22;62338;48.832;9.422;2023-07-22T05:24:05;13.80;99.90
4787;DHT22;62338;48.832;9.422;2023-07-22T05:26:06;13.80;99.90
4787;DHT22;62338;48.832;9.422;2023-07-22T05:28:08;13.80;99.90
4787;DHT22;62338;48.832;9.422;2023-07-22T05:30:10;13.80;99.90
4787;DHT22;62338;48.832;9.422;2023-07-22T05:32:32;13.80;99.90
4787;DHT22;62338;48.832;9.422;2023-07-22T05:34:35;13.80;99.90
4787;DHT22;62338;48.832;9.422;2023-07-22T05:36:36;13.90;99.90
4787;DHT22;62338;48.832;9.422;2023-07-22T05:38:38;13.90;99.90
4787;DHT22;62338;48.832;9.422;2023-07-22T05:40:40;14.00;99.90
4787;DHT22;62338;48.832;9.422;2023-07-22T05:42:41;14.10;99.90
4787;DHT22;62338;48.832;9.422;2023-07-22T05:44:44;14.20;99.90
4787;DHT22;62338;48.832;9.422;2023-07-22T05:46:46;14.20;99.90
4787;DHT22;62338;48.832;9.422;2023-07-22T05:48:48;14.30;99.90
4787;DHT22;62338;48.832;9.422;2023-07-22T05:50:49;14.40;99.90
4787;DHT22;62338;48.832;9.422;2023-07-22T05:52:51;14.50;99.90
4787;DHT22;62338;48.832;9.422;2023-07-22T05:54:53;14.50;99.90
4787;DHT22;62338;48.832;9.422;2023-07-22T05:56:55;14.50;99.90
4787;DHT22;62338;48.832;9.422;2023-07-22T05:58:57;14.50;99.90
4787;DHT22;62338;48.832;9.422;2023-07-22T06:00:58;14.50;99.90
4787;DHT22;62338;48.832;9.422;2023-07-22T06:03:00;14.60;99.90
4787;DHT22;62338;48.832;9.422;2023-07-22T06:05:03;14.60;99.90
4787;DHT22;62338;48.832;9.422;2023-07-22T06:07:05;14.60;99.90
4787;DHT22;62338;48.832;9.422;2023-07-22T06:09:07;14.70;99.90
4787;DHT22;62338;48.832;9.422;2023-07-22T06:11:09;14.70;99.90
4787;DHT22;62338;48.832;9.422;2023-07-22T06:13:11;14.60;99.90
4787;DHT22;62338;48.832;9.422;2023-07-22T06:15:12;14.60;99.90
4787;DHT22;62338;48.832;9.422;2023-07-22T06:17:14;14.40;99.90
4787;DHT22;62338;48.832;9.422;2023-07-22T06:19:16;14.40;99.90
4787;DHT22;62338;48.832;9.422;2023-07-22T06:21:18;14.50;99.90
4787;DHT22;62338;48.832;9.422;2023-07-22T06:23:20;14.70;99.90
4787;DHT22;62338;48.832;9.422;2023-07-22T06:25:21;14.60;99.90
4787;DHT22;62338;48.832;9.422;2023-07-22T06:27:23;14.80;99.90
4787;DHT22;62338;48.832;9.422;2023-07-22T06:29:25;14.90;99.90
4787;DHT22;62338;48.832;9.422;2023-07-22T06:31:27;15.00;99.90
4787;DHT22;62338;48.832;9.422;2023-07-22T06:33:32;15.10;99.90
4787;DHT22;62338;48.832;9.422;2023-07-22T06:35:34;15.20;99.90
4787;DHT22;62338;48.832;9.422;2023-07-22T06:37:36;15.30;99.90
4787;DHT22;62338;48.832;9.422;2023-07-22T06:39:37;15.30;99.90
4787;DHT22;62338;48.832;9.422;2023-07-22T06:41:40;15.40;99.90
4787;DHT22;62338;48.832;9.422;2023-07-22T06:43:41;15.40;99.90
4787;DHT22;62338;48.832;9.422;2023-07-22T06:45:43;15.50;99.90
4787;DHT22;62338;48.832;9.422;2023-07-22T06:47:45;15.60;99.90
4787;DHT22;62338;48.832;9.422;2023-07-22T06:49:48;15.60;99.90
4787;DHT22;62338;48.832;9.422;2023-07-22T06:51:50;15.70;99.90
4787;DHT22;62338;48.832;9.422;2023-07-22T06:53:51;15.80;99.90
4787;DHT22;62338;48.832;9.422;2023-07-22T06:55:53;15.90;99.90
4787;DHT22;62338;48.832;9.422;2023-07-22T06:57:56;16.00;99.90
4787;DHT22;62338;48.832;9.422;2023-07-22T06:59:58;16.10;99.90
4787;DHT22;62338;48.832;9.422;2023-07-22T07:02:00;16.20;99.90
4787;DHT22;62338;48.832;9.422;2023-07-22T07:04:02;16.60;99.90
4787;DHT22;62338;48.832;9.422;2023-07-22T07:06:04;17.50;99.90
4787;DHT22;62338;48.832;9.422;2023-07-22T07:08:06;18.70;99.90
4787;DHT22;62338;48.832;9.422;2023-07-22T07:10:07;19.60;99.90
4787;DHT22;62338;48.832;9.422;2023-07-22T07:12:09;20.50;99.90
4787;DHT22;62338;48.832;9.422;2023-07-22T07:14:12;21.30;99.90
4787;DHT22;62338;48.832;9.422;2023-07-22T07:16:28;22.40;99.90
4787;DHT22;62338;48.832;9.422;2023-07-22T07:18:31;22.90;98.50
4787;DHT22;62338;48.832;9.422;2023-07-22T07:20:32;23.20;97.50
4787;DHT22;62338;48.832;9.422;2023-07-22T07:22:34;23.00;99.90
4787;DHT22;62338;48.832;9.422;2023-07-22T07:24:36;23.40;97.80
4787;DHT22;62338;48.832;9.422;2023-07-22T07:26:38;23.50;97.10
4787;DHT22;62338;48.832;9.422;2023-07-22T07:28:40;23.70;96.00
4787;DHT22;62338;48.832;9.422;2023-07-22T07:30:42;24.10;96.50
4787;DHT22;62338;48.832;9.422;2023-07-22T07:32:44;23.90;99.90
4787;DHT22;62338;48.832;9.422;2023-07-22T07:34:45;24.30;96.60
4787;DHT22;62338;48.832;9.422;2023-07-22T07:36:47;24.60;93.80
4787;DHT22;62338;48.832;9.422;2023-07-22T07:38:50;25.10;93.80
4787;DHT22;62338;48.832;9.422;2023-07-22T07:41:12;25.70;89.90
4787;DHT22;62338;48.832;9.422;2023-07-22T07:43:14;25.80;87.50
4787;DHT22;62338;48.832;9.422;2023-07-22T07:45:16;25.70;88.40
4787;DHT22;62338;48.832;9.422;2023-07-22T07:47:18;25.60;87.30
4787;DHT22;62338;48.832;9.422;2023-07-22T07:49:20;25.80;84.40
4787;DHT22;62338;48.832;9.422;2023-07-22T07:51:23;25.60;85.70
4787;DHT22;62338;48.832;9.422;2023-07-22T07:53:31;25.70;88.20
4787;DHT22;62338;48.832;9.422;2023-07-22T07:55:33;26.10;85.60
4787;DHT22;62338;48.832;9.422;2023-07-22T07:57:34;26.50;86.10
4787;DHT22;62338;48.832;9.422;2023-07-22T07:59:36;26.50;80.20
4787;DHT22;62338;48.832;9.422;2023-07-22T08:01:40;26.80;81.20
4787;DHT22;62338;48.832;9.422;2023-07-22T08:03:44;26.60;83.80
4787;DHT22;62338;48.832;9.422;2023-07-22T08:05:46;26.30;84.30
4787;DHT22;62338;48.832;9.422;2023-07-22T08:07:48;26.20;83.90
4787;DHT22;62338;48.832;9.422;2023-07-22T08:09:50;26.50;82.70
4787;DHT22;62338;48.832;9.422;2023-07-22T08:11:52;26.60;78.10
4787;DHT22;62338;48.832;9.422;2023-07-22T08:13:54;27.10;75.40
4787;DHT22;62338;48.832;9.422;2023-07-22T08:16:04;27.20;75.30
4787;DHT22;62338;48.832;9.422;2023-07-22T08:18:06;27.20;75.20
4787;DHT22;62338;48.832;9.422;2023-07-22T08:20:08;26.90;77.10
4787;DHT22;62338;48.832;9.422;2023-07-22T08:22:09;27.10;76.80
4787;DHT22;62338;48.832;9.422;2023-07-22T08:24:12;27.30;76.60
4787;DHT22;62338;48.832;9.422;2023-07-22T08:26:14;27.10;77.50
4787;DHT22;62338;48.832;9.422;2023-07-22T08:28:16;27.80;76.80
4787;DHT22;62338;48.832;9.422;2023-07-22T08:30:18;28.10;73.60
4787;DHT22;62338;48.832;9.422;2023-07-22T08:32:19;27.60;76.00
4787;DHT22;62338;48.832;9.422;2023-07-22T08:34:21;28.10;75.70
4787;DHT22;62338;48.832;9.422;2023-07-22T08:36:23;28.40;73.30
4787;DHT22;62338;48.832;9.422;2023-07-22T08:38:25;28.00;70.70
4787;DHT22;62338;48.832;9.422;2023-07-22T08:40:27;28.20;69.10
4787;DHT22;62338;48.832;9.422;2023-07-22T08:42:29;28.00;70.10
4787;DHT22;62338;48.832;9.422;2023-07-22T08:44:33;27.20;71.90
4787;DHT22;62338;48.832;9.422;2023-07-22T08:46:39;27.10;75.10
4787;DHT22;62338;48.832;9.422;2023-07-22T08:48:47;28.10;70.80
4787;DHT22;62338;48.832;9.422;2023-07-22T08:50:53;28.50;69.00
4787;DHT22;62338;48.832;9.422;2023-07-22T08:52:57;28.60;68.60
4787;DHT22;62338;48.832;9.422;2023-07-22T08:55:00;28.40;73.00
4787;DHT22;62338;48.832;9.422;2023-07-22T08:57:02;28.90;68.30
4787;DHT22;62338;48.832;9.422;2023-07-22T08:59:06;29.50;63.30
4787;DHT22;62338;48.832;9.422;2023-07-22T09:01:08;29.60;61.20
4787;DHT22;62338;48.832;9.422;2023-07-22T09:03:11;29.20;67.10
4787;DHT22;62338;48.832;9.422;2023-07-22T09:05:13;29.50;66.40
4787;DHT22;62338;48.832;9.422;2023-07-22T09:07:15;30.30;62.20
4787;DHT22;62338;48.832;9.422;2023-07-22T09:09:18;30.00;58.80
4787;DHT22;62338;48.832;9.422;2023-07-22T09:11:20;29.10;58.20
4787;DHT22;62338;48.832;9.422;2023-07-22T09:13:23;28.30;60.40
4787;DHT22;62338;48.832;9.422;2023-07-22T09:15:26;28.90;61.40
4787;DHT22;62338;48.832;9.422;2023-07-22T09:17:28;29.60;64.10
4787;DHT22;62338;48.832;9.422;2023-07-22T09:19:30;28.90;60.50
4787;DHT22;62338;48.832;9.422;2023-07-22T09:21:32;29.10;57.90
4787;DHT22;62338;48.832;9.422;2023-07-22T09:23:38;29.10;60.90
4787;DHT22;62338;48.832;9.422;2023-07-22T09:25:41;29.10;59.30
4787;DHT22;62338;48.832;9.422;2023-07-22T09:27:44;28.90;57.20
4787;DHT22;62338;48.832;9.422;2023-07-22T09:29:46;28.40;61.80
4787;DHT22;62338;48.832;9.422;2023-07-22T09:31:53;27.50;57.30
4787;DHT22;62338;48.832;9.422;2023-07-22T09:34:10;26.10;63.10
4787;DHT22;62338;48.832;9.422;2023-07-22T09:36:12;25.40;60.00
4787;DHT22;62338;48.832;9.422;2023-07-22T09:38:14;24.50;62.20
4787;DHT22;62338;48.832;9.422;2023-07-22T09:40:23;23.70;62.30
4787;DHT22;62338;48.832;9.422;2023-07-22T09:42:25;23.20;67.00
4787;DHT22;62338;48.832;9.422;2023-07-22T09:44:30;23.00;70.60
4787;DHT22;62338;48.832;9.422;2023-07-22T09:46:32;22.60;75.10
4787;DHT22;62338;48.832;9.422;2023-07-22T09:48:41;22.80;80.80
4787;DHT22;62338;48.832;9.422;2023-07-22T09:50:43;22.70;80.70
4787;DHT22;62338;48.832;9.422;2023-07-22T09:54:52;22.80;85.10
4787;DHT22;62338;48.832;9.422;2023-07-22T09:56:54;23.00;90.60
4787;DHT22;62338;48.832;9.422;2023-07-22T09:58:58;23.20;80.70
4787;DHT22;62338;48.832;9.422;2023-07-22T10:01:00;23.30;79.90
4787;DHT22;62338;48.832;9.422;2023-07-22T10:03:04;23.40;78.30
4787;DHT22;62338;48.832;9.422;2023-07-22T10:05:18;23.20;79.30
4787;DHT22;62338;48.832;9.422;2023-07-22T10:07:21;23.00;83.60
4787;DHT22;62338;48.832;9.422;2023-07-22T10:09:23;23.10;84.00
4787;DHT22;62338;48.832;9.422;2023-07-22T10:11:27;23.30;81.70
4787;DHT22;62338;48.832;9.422;2023-07-22T10:13:29;23.80;86.30
4787;DHT22;62338;48.832;9.422;2023-07-22T10:15:33;25.30;77.60
4787;DHT22;62338;48.832;9.422;2023-07-22T10:17:36;26.80;72.10
4787;DHT22;62338;48.832;9.422;2023-07-22T10:19:38;28.10;65.30
4787;DHT22;62338;48.832;9.422;2023-07-22T10:21:40;28.00;60.40
4787;DHT22;62338;48.832;9.422;2023-07-22T10:23:43;28.60;65.90
4787;DHT22;62338;48.832;9.422;2023-07-22T10:25:47;28.90;57.60
4787;DHT22;62338;48.832;9.422;2023-07-22T10:27:51;28.40;59.70
4787;DHT22;62338;48.832;9.422;2023-07-22T10:29:54;28.90;58.60
4787;DHT22;62338;48.832;9.422;2023-07-22T10:31:56;29.50;57.60
4787;DHT22;62338;48.832;9.422;2023-07-22T10:34:00;30.30;56.60
4787;DHT22;62338;48.832;9.422;2023-07-22T10:36:07;30.90;53.90
4787;DHT22;62338;48.832;9.422;2023-07-22T10:38:15;31.10;51.70
4787;DHT22;62338;48.832;9.422;2023-07-22T10:40:18;31.70;54.00
4787;DHT22;62338;48.832;9.422;2023-07-22T10:42:24;31.40;52.60
4787;DHT22;62338;48.832;9.422;2023-07-22T10:44:27;31.10;51.30
4787;DHT22;62338;48.832;9.422;2023-07-22T10:46:36;30.80;53.60
4787;DHT22;62338;48.832;9.422;2023-07-22T10:48:41;30.20;49.60
4787;DHT22;62338;48.832;9.422;2023-07-22T10:50:51;29.30;53.60
4787;DHT22;62338;48.832;9.422;2023-07-22T10:52:53;28.30;54.90
4787;DHT22;62338;48.832;9.422;2023-07-22T10:55:01;27.60;55.50
4787;DHT22;62338;48.832;9.422;2023-07-22T10:59:26;26.50;59.20
4787;DHT22;62338;48.832;9.422;2023-07-22T11:03:30;25.60;62.10
4787;DHT22;62338;48.832;9.422;2023-07-22T11:05:52;26.40;63.00
4787;DHT22;62338;48.832;9.422;2023-07-22T11:08:03;27.30;58.20
4787;DHT22;62338;48.832;9.422;2023-07-22T11:10:16;27.90;60.20
4787;DHT22;62338;48.832;9.422;2023-07-22T11:12:18;28.40;53.90
4787;DHT22;62338;48.832;9.422;2023-07-22T11:14:23;28.00;53.90
4787;DHT22;62338;48.832;9.422;2023-07-22T11:16:28;28.40;52.50
4787;DHT22;62338;48.832;9.422;2023-07-22T11:18:38;28.70;55.90
4787;DHT22;62338;48.832;9.422;2023-07-22T11:20:40;28.10;54.10
4787;DHT22;62338;48.832;9.422;2023-07-22T11:22:42;27.70;54.60
4787;DHT22;62338;48.832;9.422;2023-07-22T11:24:45;28.50;54.40
4787;DHT22;62338;48.832;9.422;2023-07-22T11:26:47;28.60;54.30
4787;DHT22;62338;48.832;9.422;2023-07-22T11:28:49;27.70;54.40
4787;DHT22;62338;48.832;9.422;2023-07-22T11:30:51;26.80;55.70
4787;DHT22;62338;48.832;9.422;2023-07-22T11:32:58;26.50;55.60
4787;DHT22;62338;48.832;9.422;2023-07-22T11:35:00;26.10;57.40
4787;DHT22;62338;48.832;9.422;2023-07-22T11:37:02;26.90;57.20
4787;DHT22;62338;48.832;9.422;2023-07-22T11:39:12;27.50;54.50
4787;DHT22;62338;48.832;9.422;2023-07-22T11:41:15;27.80;55.40
4787;DHT22;62338;48.832;9.422;2023-07-22T11:43:17;27.40;55.00
4787;DHT22;62338;48.832;9.422;2023-07-22T11:45:21;26.50;56.50
4787;DHT22;62338;48.832;9.422;2023-07-22T11:47:29;25.40;57.80
4787;DHT22;62338;48.832;9.422;2023-07-22T11:49:35;25.00;58.90
4787;DHT22;62338;48.832;9.422;2023-07-22T11:51:37;24.80;59.40
4787;DHT22;62338;48.832;9.422;2023-07-22T11:53:46;25.10;56.10
4787;DHT22;62338;48.832;9.422;2023-07-22T11:55:51;25.10;59.10
4787;DHT22;62338;48.832;9.422;2023-07-22T11:57:53;25.20;60.70
4787;DHT22;62338;48.832;9.422;2023-07-22T11:59:56;25.60;62.10
4787;DHT22;62338;48.832;9.422;2023-07-22T12:02:00;26.50;62.30
4787;DHT22;62338;48.832;9.422;2023-07-22T12:04:12;27.30;56.70
4787;DHT22;62338;48.832;9.422;2023-07-22T12:06:15;27.80;58.00
4787;DHT22;62338;48.832;9.422;2023-07-22T12:08:17;28.60;56.10
4787;DHT22;62338;48.832;9.422;2023-07-22T12:10:19;29.60;53.10
4787;DHT22;62338;48.832;9.422;2023-07-22T12:12:20;28.60;51.60
4787;DHT22;62338;48.832;9.422;2023-07-22T12:14:22;28.30;55.30
4787;DHT22;62338;48.832;9.422;2023-07-22T12:16:24;28.50;52.80
4787;DHT22;62338;48.832;9.422;2023-07-22T12:18:26;28.70;53.70
4787;DHT22;62338;48.832;9.422;2023-07-22T12:20:29;28.50;51.60
4787;DHT22;62338;48.832;9.422;2023-07-22T12:22:31;28.40;50.70
4787;DHT22;62338;48.832;9.422;2023-07-22T12:24:33;28.70;55.60
4787;DHT22;62338;48.832;9.422;2023-07-22T12:26:34;29.40;52.90
4787;DHT22;62338;48.832;9.422;2023-07-22T12:28:36;29.90;49.20
4787;DHT22;62338;48.832;9.422;2023-07-22T12:30:38;30.80;47.70
4787;DHT22;62338;48.832;9.422;2023-07-22T12:32:40;31.30;47.00
4787;DHT22;62338;48.832;9.422;2023-07-22T12:34:42;30.90;48.40
4787;DHT22;62338;48.832;9.422;2023-07-22T12:36:44;29.70;46.60
4787;DHT22;62338;48.832;9.422;2023-07-22T12:38:45;28.70;50.30
4787;DHT22;62338;48.832;9.422;2023-07-22T12:40:47;27.90;49.60
4787;DHT22;62338;48.832;9.422;2023-07-22T12:42:49;27.30;50.40
4787;DHT22;62338;48.832;9.422;2023-07-22T12:44:51;26.80;52.70
4787;DHT22;62338;48.832;9.422;2023-07-22T12:46:53;26.30;52.80
4787;DHT22;62338;48.832;9.422;2023-07-22T12:48:55;25.90;53.00
4787;DHT22;62338;48.832;9.422;2023-07-22T12:50:57;25.50;54.20
4787;DHT22;62338;48.832;9.422;2023-07-22T12:52:59;25.90;56.80
4787;DHT22;62338;48.832;9.422;2023-07-22T12:55:01;27.00;54.70
4787;DHT22;62338;48.832;9.422;2023-07-22T12:57:04;27.90;50.80
4787;DHT22;62338;48.832;9.422;2023-07-22T12:59:06;28.60;51.10
4787;DHT22;62338;48.832;9.422;2023-07-22T13:01:07;28.90;48.60
4787;DHT22;62338;48.832;9.422;2023-07-22T13:03:09;29.40;50.70
4787;DHT22;62338;48.832;9.422;2023-07-22T13:05:12;30.10;49.40
4787;DHT22;62338;48.832;9.422;2023-07-22T13:07:14;30.20;48.20
4787;DHT22;62338;48.832;9.422;2023-07-22T13:09:16;30.10;46.40
4787;DHT22;62338;48.832;9.422;2023-07-22T13:11:18;30.00;45.90
4787;DHT22;62338;48.832;9.422;2023-07-22T13:13:19;30.10;47.00
4787;DHT22;62338;48.832;9.422;2023-07-22T13:15:21;30.30;46.40